createdAt,value
2018-04-27T00:00:10.874Z,98222.44
2018-04-27T00:02:38.800Z,98216.09
2018-04-27T00:05:06.524Z,98217.37
2018-04-27T00:07:34.073Z,98219.30
2018-04-27T00:10:01.834Z,98216.06
2018-04-27T00:12:29.490Z,98217.15
2018-04-27T00:14:57.040Z,98218.79
2018-04-27T00:17:24.921Z,98222.52
2018-04-27T00:19:53.044Z,98214.70
2018-04-27T00:22:20.580Z,98213.53
2018-04-27T00:24:48.210Z,98217.42
2018-04-27T00:27:15.875Z,98217.19
2018-04-27T00:29:43.408Z,98209.80
2018-04-27T00:32:10.960Z,98205.41
2018-04-27T00:34:38.559Z,98206.46
2018-04-27T00:37:06.365Z,98198.03
2018-04-27T00:39:34.208Z,98197.59
2018-04-27T00:42:01.928Z,98201.48
2018-04-27T00:44:29.605Z,98194.33
2018-04-27T00:46:57.208Z,98192.13
2018-04-27T00:49:24.965Z,98186.48
2018-04-27T00:51:52.590Z,98185.92
2018-04-27T00:54:20.144Z,98190.31
2018-04-27T00:56:47.804Z,98190.30
2018-04-27T00:59:15.433Z,98191.61
2018-04-27T01:01:43.004Z,98185.99
2018-04-27T01:04:10.771Z,98184.16
2018-04-27T01:06:38.316Z,98192.05
2018-04-27T01:09:05.940Z,98190.57
2018-04-27T01:11:33.598Z,98192.15
2018-04-27T01:14:01.154Z,98184.54
2018-04-27T01:16:28.968Z,98187.39
2018-04-27T01:18:56.690Z,98175.47
2018-04-27T01:21:24.575Z,98179.39
2018-04-27T01:23:52.121Z,98183.70
2018-04-27T01:26:19.706Z,98180.85
2018-04-27T01:28:47.520Z,98175.09
2018-04-27T01:31:15.164Z,98171.17
2018-04-27T01:33:43.109Z,98174.75
2018-04-27T01:36:10.693Z,98168.75
2018-04-27T01:38:38.450Z,98166.28
2018-04-27T01:41:06.568Z,98162.06
2018-04-27T01:43:34.115Z,98156.20
2018-04-27T01:46:01.680Z,98160.42
2018-04-27T01:48:29.287Z,98158.22
2018-04-27T01:50:56.890Z,98156.41
2018-04-27T01:53:24.795Z,98151.39
2018-04-27T01:55:52.467Z,98146.56
2018-04-27T01:58:20.137Z,98141.83
2018-04-27T02:00:47.245Z,98134.64
2018-04-27T02:03:14.691Z,98136.91
2018-04-27T02:05:42.368Z,98129.33
2018-04-27T02:08:09.452Z,98126.57
2018-04-27T02:10:36.955Z,98117.85
2018-04-27T02:13:04.215Z,98117.00
2018-04-27T02:15:31.820Z,98110.23
2018-04-27T02:17:59.622Z,98111.59
2018-04-27T02:20:27.121Z,98111.03
2018-04-27T02:22:54.711Z,98113.88
2018-04-27T02:25:22.557Z,98109.97
2018-04-27T02:27:50.171Z,98111.97
2018-04-27T02:30:17.860Z,98106.50
2018-04-27T02:32:44.968Z,98112.64
2018-04-27T02:35:12.027Z,98112.66
2018-04-27T02:37:39.557Z,98104.47
2018-04-27T02:40:06.644Z,98097.79
2018-04-27T02:42:34.398Z,98096.30
2018-04-27T02:45:02.009Z,98096.89
2018-04-27T02:47:29.245Z,98091.45
2018-04-27T02:49:56.431Z,98089.67
2018-04-27T02:52:24.071Z,98082.02
2018-04-27T02:54:51.158Z,98091.95
2018-04-27T02:57:19.398Z,98085.79
2018-04-27T02:59:47.075Z,98081.61
2018-04-27T03:02:14.692Z,98075.16
2018-04-27T03:04:42.226Z,98070.74
2018-04-27T03:07:09.899Z,98067.55
2018-04-27T03:09:37.537Z,98059.54
2018-04-27T03:12:05.115Z,98055.50
2018-04-27T03:14:32.690Z,98059.02
2018-04-27T03:17:00.203Z,98053.30
2018-04-27T03:19:27.776Z,98053.91
2018-04-27T03:21:55.365Z,98052.37
2018-04-27T03:24:22.960Z,98039.37
2018-04-27T03:26:50.720Z,98037.05
2018-04-27T03:29:18.309Z,98027.30
2018-04-27T03:31:45.835Z,98037.25
2018-04-27T03:34:13.412Z,98040.91
2018-04-27T03:36:41.141Z,98040.14
2018-04-27T03:39:08.661Z,98032.93
2018-04-27T03:41:36.327Z,98031.48
2018-04-27T03:44:04.967Z,98027.81
2018-04-27T03:46:32.731Z,98024.28
2018-04-27T03:49:00.350Z,98021.09
2018-04-27T03:51:27.888Z,98021.79
2018-04-27T03:53:55.530Z,98021.16
2018-04-27T03:56:23.150Z,98019.23
2018-04-27T03:58:50.675Z,98001.24
2018-04-27T04:01:30.273Z,98000.23
2018-04-27T04:04:09.721Z,97996.13
2018-04-27T04:06:37.367Z,97981.76
2018-04-27T04:09:05.325Z,97976.48
2018-04-27T04:11:32.965Z,97978.25
2018-04-27T04:14:01.646Z,97969.98
2018-04-27T04:16:29.321Z,97964.06
2018-04-27T04:18:57.086Z,97964.93
2018-04-27T04:21:24.857Z,97966.19
2018-04-27T04:23:52.543Z,97961.20
2018-04-27T04:26:20.266Z,97961.61
2018-04-27T04:28:47.897Z,97967.30
2018-04-27T04:31:15.437Z,97962.78
2018-04-27T04:33:42.954Z,97970.06
2018-04-27T04:36:10.657Z,97961.67
2018-04-27T04:38:38.230Z,97962.66
2018-04-27T04:41:05.756Z,97971.64
2018-04-27T04:43:33.298Z,97970.14
2018-04-27T04:46:01.645Z,97969.55
2018-04-27T04:48:29.262Z,97975.02
2018-04-27T04:50:56.957Z,97970.39
2018-04-27T04:53:24.518Z,97971.73
2018-04-27T04:55:52.211Z,97967.88
2018-04-27T04:58:19.829Z,97964.39
2018-04-27T05:00:47.776Z,97962.05
2018-04-27T05:03:15.332Z,97964.52
2018-04-27T05:05:43.376Z,97959.43
2018-04-27T05:08:11.238Z,97966.97
2018-04-27T05:10:38.879Z,97965.30
2018-04-27T05:13:06.611Z,97962.54
2018-04-27T05:15:34.166Z,97957.25
2018-04-27T05:18:01.775Z,97952.70
2018-04-27T05:20:28.971Z,97955.15
2018-04-27T05:22:56.698Z,97954.75
2018-04-27T05:25:24.705Z,97949.11
2018-04-27T05:27:52.486Z,97947.33
2018-04-27T05:30:30.074Z,97930.98
2018-04-27T05:33:04.569Z,97926.20
2018-04-27T05:35:32.420Z,97917.20
2018-04-27T05:38:00.082Z,97918.63
2018-04-27T05:40:27.684Z,97922.23
2018-04-27T05:42:55.315Z,97921.34
2018-04-27T05:45:24.311Z,97926.41
2018-04-27T05:47:51.943Z,97926.41
2018-04-27T05:50:19.821Z,97921.88
2018-04-27T05:52:47.536Z,97921.97
2018-04-27T05:55:15.437Z,97919.73
2018-04-27T05:57:43.352Z,97921.80
2018-04-27T06:00:11.067Z,97921.63
2018-04-27T06:02:38.588Z,97917.27
2018-04-27T06:05:06.246Z,97924.92
2018-04-27T06:07:33.905Z,97920.60
2018-04-27T06:10:02.027Z,97918.07
2018-04-27T06:12:29.572Z,97903.49
2018-04-27T06:14:57.183Z,97904.70
2018-04-27T06:17:24.893Z,97894.70
2018-04-27T06:19:52.437Z,97895.94
2018-04-27T06:22:20.268Z,97886.62
2018-04-27T06:24:47.822Z,97878.43
2018-04-27T06:27:15.521Z,97878.88
2018-04-27T06:29:43.119Z,97871.78
2018-04-27T06:32:10.785Z,97874.95
2018-04-27T06:34:38.417Z,97873.34
2018-04-27T06:37:06.076Z,97867.29
2018-04-27T06:39:33.718Z,97869.70
2018-04-27T06:42:01.416Z,97865.30
2018-04-27T06:44:29.010Z,97857.16
2018-04-27T06:46:56.555Z,97849.38
2018-04-27T06:49:24.536Z,97848.45
2018-04-27T06:51:52.165Z,97844.63
2018-04-27T06:54:19.790Z,97844.20
2018-04-27T06:56:47.361Z,97836.58
2018-04-27T06:59:14.996Z,97836.93
2018-04-27T07:01:42.763Z,97822.41
2018-04-27T07:04:10.702Z,97821.38
2018-04-27T07:06:38.287Z,97815.34
2018-04-27T07:09:06.463Z,97809.42
2018-04-27T07:11:34.145Z,97809.14
2018-04-27T07:14:02.611Z,97803.07
2018-04-27T07:16:30.892Z,97804.97
2018-04-27T07:18:58.427Z,97796.59
2018-04-27T07:21:26.244Z,97795.22
2018-04-27T07:23:53.778Z,97792.46
2018-04-27T07:26:21.281Z,97786.41
2018-04-27T07:28:49.008Z,97785.45
2018-04-27T07:31:16.601Z,97785.70
2018-04-27T07:33:44.481Z,97781.55
2018-04-27T07:36:12.288Z,97776.34
2018-04-27T07:38:40.096Z,97771.91
2018-04-27T07:41:07.617Z,97757.02
2018-04-27T07:43:35.242Z,97758.41
2018-04-27T07:46:03.191Z,97761.94
2018-04-27T07:48:31.296Z,97756.45
2018-04-27T07:50:59.267Z,97749.09
2018-04-27T07:53:26.987Z,97744.48
2018-04-27T07:55:54.606Z,97744.69
2018-04-27T07:58:22.370Z,97738.39
2018-04-27T08:00:50.004Z,97739.02
2018-04-27T08:03:17.622Z,97726.32
2018-04-27T08:05:45.282Z,97729.19
2018-04-27T08:08:12.823Z,97725.20
2018-04-27T08:10:40.639Z,97723.00
2018-04-27T08:13:08.191Z,97721.48
2018-04-27T08:15:36.311Z,97721.29
2018-04-27T08:18:03.851Z,97718.64
2018-04-27T08:20:31.437Z,97701.91
2018-04-27T08:22:59.772Z,97709.28
2018-04-27T08:25:31.246Z,97711.87
2018-04-27T08:27:59.381Z,97700.72
2018-04-27T08:30:27.003Z,97697.86
2018-04-27T08:32:54.588Z,97692.59
2018-04-27T08:35:22.136Z,97679.34
2018-04-27T08:37:49.741Z,97681.76
2018-04-27T08:40:17.286Z,97673.36
2018-04-27T08:42:44.967Z,97672.80
2018-04-27T08:45:12.500Z,97676.13
2018-04-27T08:47:40.247Z,97678.09
2018-04-27T08:50:07.833Z,97674.93
2018-04-27T08:52:35.479Z,97673.64
2018-04-27T08:55:03.180Z,97668.12
2018-04-27T08:57:30.759Z,97666.95
2018-04-27T08:59:58.424Z,97658.77
2018-04-27T09:02:26.128Z,97652.61
2018-04-27T09:04:53.667Z,97648.13
2018-04-27T09:07:21.513Z,97645.08
2018-04-27T09:09:49.054Z,97631.60
2018-04-27T09:12:16.594Z,97639.63
2018-04-27T09:14:44.142Z,97639.98
2018-04-27T09:17:11.681Z,97639.88
2018-04-27T09:19:40.084Z,97619.92
2018-04-27T09:22:07.786Z,97625.34
2018-04-27T09:24:35.348Z,97619.97
2018-04-27T09:27:02.894Z,97631.42
2018-04-27T09:29:30.474Z,97614.80
2018-04-27T09:31:58.119Z,97610.69
2018-04-27T09:34:25.854Z,97606.36
2018-04-27T09:36:53.704Z,97601.45
2018-04-27T09:39:21.361Z,97591.88
2018-04-27T09:41:48.906Z,97597.36
2018-04-27T09:44:16.852Z,97580.77
2018-04-27T09:46:44.635Z,97589.72
2018-04-27T09:49:12.316Z,97568.09
2018-04-27T09:51:39.886Z,97569.67
2018-04-27T09:54:07.430Z,97569.22
2018-04-27T09:56:35.134Z,97568.34
2018-04-27T09:59:02.689Z,97561.78
2018-04-27T10:01:30.281Z,97563.20
2018-04-27T10:03:57.978Z,97566.14
2018-04-27T10:06:25.794Z,97559.22
2018-04-27T10:08:53.622Z,97550.57
2018-04-27T10:11:21.302Z,97550.88
2018-04-27T10:13:48.910Z,97554.80
2018-04-27T10:16:16.550Z,97549.48
2018-04-27T10:18:44.314Z,97548.38
2018-04-27T10:21:12.115Z,97543.64
2018-04-27T10:23:39.900Z,97533.95
2018-04-27T10:26:07.523Z,97535.68
2018-04-27T10:28:35.214Z,97533.76
2018-04-27T10:31:02.884Z,97531.59
2018-04-27T10:33:30.400Z,97522.86
2018-04-27T10:35:59.014Z,97520.84
2018-04-27T10:38:26.564Z,97519.59
2018-04-27T10:40:54.372Z,97519.53
2018-04-27T10:43:21.973Z,97514.83
2018-04-27T10:45:49.666Z,97513.52
2018-04-27T10:48:17.262Z,97505.89
2018-04-27T10:50:44.852Z,97501.87
2018-04-27T10:53:12.438Z,97506.31
2018-04-27T10:55:41.242Z,97491.80
2018-04-27T10:58:09.388Z,97488.41
2018-04-27T11:00:36.920Z,97488.42
2018-04-27T11:03:04.548Z,97482.28
2018-04-27T11:05:33.005Z,97480.36
2018-04-27T11:08:00.676Z,97473.40
2018-04-27T11:10:28.444Z,97459.78
2018-04-27T11:12:56.210Z,97453.73
2018-04-27T11:15:23.791Z,97447.84
2018-04-27T11:17:51.479Z,97436.88
2018-04-27T11:20:19.108Z,97446.03
2018-04-27T11:22:46.826Z,97435.54
2018-04-27T11:25:14.421Z,97432.83
2018-04-27T11:27:42.017Z,97427.88
2018-04-27T11:30:09.836Z,97431.73
2018-04-27T11:32:37.375Z,97425.28
2018-04-27T11:35:05.153Z,97415.45
2018-04-27T11:37:32.736Z,97417.55
2018-04-27T11:40:00.372Z,97408.98
2018-04-27T11:42:27.944Z,97413.28
2018-04-27T11:44:55.525Z,97400.34
2018-04-27T11:47:23.057Z,97400.42
2018-04-27T11:49:50.667Z,97397.09
2018-04-27T11:52:18.270Z,97398.18
2018-04-27T11:54:46.267Z,97392.38
2018-04-27T11:57:13.867Z,97387.44
2018-04-27T11:59:41.552Z,97385.97
2018-04-27T12:02:09.939Z,97389.33
2018-04-27T12:04:37.640Z,97380.73
2018-04-27T12:07:05.337Z,97382.72
2018-04-27T12:09:33.000Z,97379.30
2018-04-27T12:12:00.561Z,97371.30
2018-04-27T12:14:28.355Z,97367.78
2018-04-27T12:16:56.824Z,97373.38
2018-04-27T12:19:24.456Z,97363.34
2018-04-27T12:21:51.985Z,97367.30
2018-04-27T12:24:19.652Z,97357.02
2018-04-27T12:26:48.483Z,97365.03
2018-04-27T12:29:16.069Z,97369.06
2018-04-27T12:31:43.864Z,97361.62
2018-04-27T12:34:11.413Z,97366.77
2018-04-27T12:36:38.976Z,97352.06
2018-04-27T12:39:06.560Z,97353.03
2018-04-27T12:41:34.242Z,97348.83
2018-04-27T12:44:02.024Z,97345.50
2018-04-27T12:46:30.103Z,97338.25
2018-04-27T12:48:57.753Z,97340.01
2018-04-27T12:51:25.385Z,97338.24
2018-04-27T12:53:52.961Z,97332.08
2018-04-27T12:56:20.562Z,97325.98
2018-04-27T12:58:48.175Z,97330.72
2018-04-27T13:01:15.955Z,97334.61
2018-04-27T13:03:43.592Z,97323.20
2018-04-27T13:06:11.183Z,97317.22
2018-04-27T13:08:39.081Z,97312.51
2018-04-27T13:11:06.690Z,97310.37
2018-04-27T13:13:34.362Z,97306.26
2018-04-27T13:16:02.090Z,97304.83
2018-04-27T13:18:29.776Z,97299.14
2018-04-27T13:20:57.649Z,97302.27
2018-04-27T13:23:25.294Z,97300.42
2018-04-27T13:25:52.822Z,97293.73
2018-04-27T13:28:23.241Z,97294.92
2018-04-27T13:30:50.895Z,97275.46
2018-04-27T13:33:18.712Z,97273.62
2018-04-27T13:35:46.276Z,97277.63
2018-04-27T13:38:13.972Z,97277.44
2018-04-27T13:40:41.698Z,97279.41
2018-04-27T13:43:09.347Z,97276.14
2018-04-27T13:45:37.010Z,97280.28
2018-04-27T13:48:04.485Z,97285.94
2018-04-27T13:50:32.389Z,97287.30
2018-04-27T13:53:00.262Z,97289.05
2018-04-27T13:55:27.782Z,97293.62
2018-04-27T13:57:55.515Z,97290.22
2018-04-27T14:00:23.118Z,97296.69
2018-04-27T14:02:50.908Z,97281.95
2018-04-27T14:05:18.575Z,97270.77
2018-04-27T14:07:46.109Z,97266.86
2018-04-27T14:10:13.841Z,97263.69
2018-04-27T14:12:41.673Z,97259.98
2018-04-27T14:15:09.281Z,97254.03
2018-04-27T14:17:36.818Z,97254.74
2018-04-27T14:20:04.592Z,97252.74
2018-04-27T14:22:32.056Z,97249.70
2018-04-27T14:25:00.009Z,97245.73
2018-04-27T14:27:27.607Z,97242.19
2018-04-27T14:29:55.262Z,97237.08
2018-04-27T14:32:23.058Z,97227.48
2018-04-27T14:34:50.596Z,97221.66
2018-04-27T14:37:18.132Z,97222.98
2018-04-27T14:39:45.768Z,97221.82
2018-04-27T14:42:13.447Z,97220.72
2018-04-27T14:44:41.013Z,97211.13
2018-04-27T14:47:08.571Z,97203.59
2018-04-27T14:49:36.297Z,97204.09
2018-04-27T14:52:04.041Z,97192.68
2018-04-27T14:54:31.625Z,97190.04
2018-04-27T14:56:59.256Z,97179.55
2018-04-27T14:59:27.122Z,97174.45
2018-04-27T15:01:54.790Z,97178.23
2018-04-27T15:04:22.413Z,97181.28
2018-04-27T15:06:49.993Z,97171.85
2018-04-27T15:09:17.513Z,97167.73
2018-04-27T15:11:45.170Z,97170.06
2018-04-27T15:14:12.736Z,97172.59
2018-04-27T15:16:40.426Z,97166.03
2018-04-27T15:19:08.006Z,97166.20
2018-04-27T15:21:35.702Z,97160.41
2018-04-27T15:24:03.579Z,97163.17
2018-04-27T15:26:31.137Z,97157.66
2018-04-27T15:28:58.686Z,97154.56
2018-04-27T15:31:26.385Z,97153.95
2018-04-27T15:33:54.067Z,97153.25
2018-04-27T15:36:21.785Z,97149.41
2018-04-27T15:38:49.338Z,97157.73
2018-04-27T15:41:17.187Z,97152.64
2018-04-27T15:43:44.748Z,97154.02
2018-04-27T15:46:12.476Z,97154.59
2018-04-27T15:48:40.081Z,97153.09
2018-04-27T15:51:07.615Z,97155.98
2018-04-27T15:53:35.296Z,97162.80
2018-04-27T15:56:03.410Z,97151.58
2018-04-27T15:58:31.116Z,97148.28
2018-04-27T16:00:58.665Z,97143.47
2018-04-27T16:03:26.221Z,97137.98
2018-04-27T16:05:53.892Z,97136.24
2018-04-27T16:08:21.419Z,97127.17
2018-04-27T16:10:49.246Z,97116.98
2018-04-27T16:13:18.622Z,97114.80
2018-04-27T16:15:46.922Z,97112.02
2018-04-27T16:18:14.472Z,97121.91
2018-04-27T16:20:42.185Z,97110.97
2018-04-27T16:23:09.807Z,97120.92
2018-04-27T16:25:37.373Z,97126.27
2018-04-27T16:28:04.943Z,97115.52
2018-04-27T16:30:32.759Z,97119.83
2018-04-27T16:33:00.355Z,97115.96
